Time;durP1;ratioP1;P1;durP2;ratioP2;P2;SDS_P1;SDS_P2;PMS_P1;PMS_P2;Temp;Humidity;BMP_temperature;BMP_pressure;BME280_temperature;BME280_humidity;BME280_pressure;Samples;Min_cycle;Max_cycle;Signal;HPM_P1;HPM_P2
2022/04/16 04:24:45;;;;;;;4.50;2.20;;;;;;;;;;5638955;23;19926;-52
2022/04/16 07:08:33;;;;;;;3.53;1.70;;;;;;;;;;6058676;23;20155;-51
2022/04/16 16:43:40;;;;;;;0.30;0.28;;;;;;;;;;5706439;23;20071;-59
2022/04/16 16:46:07;;;;;;;0.77;0.32;;;;;;;;;;5005517;23;20059;-57
2022/04/16 16:48:33;;;;;;;1.13;0.28;;;;;;;;;;4930657;29;20027;-57
2022/04/16 16:50:59;;;;;;;0.88;0.30;;;;;;;;;;4929603;29;20810;-58
2022/04/16 16:53:25;;;;;;;2.28;0.40;;;;;;;;;;4932044;29;20035;-57
2022/04/16 16:55:51;;;;;;;0.30;0.30;;;;;;;;;;4939977;29;20035;-58
2022/04/16 16:58:17;;;;;;;3.50;0.60;;;;;;;;;;4933241;29;20040;-57
2022/04/16 17:00:43;;;;;;;1.40;0.45;;;;;;;;;;4934258;29;20455;-57
2022/04/16 17:05:54;;;;;;;3.40;0.47;;;;;;;;;;4930811;29;20042;-57
2022/04/16 17:08:20;;;;;;;1.30;0.30;;;;;;;;;;4923046;29;20028;-58
2022/04/16 17:10:46;;;;;;;2.25;0.63;;;;;;;;;;4931984;29;20423;-56
2022/04/16 17:13:12;;;;;;;1.52;0.40;;;;;;;;;;4932785;29;20075;-57
2022/04/16 17:18:41;;;;;;;0.80;0.45;;;;;;;;;;4933681;29;20103;-57
2022/04/16 17:21:07;;;;;;;4.82;4.43;;;;;;;;;;4940582;29;20466;-57
2022/04/16 17:23:34;;;;;;;1.25;1.15;;;;;;;;;;4932268;29;20659;-57
2022/04/16 17:26:00;;;;;;;0.85;0.40;;;;;;;;;;4934549;29;20024;-56
2022/04/16 17:28:26;;;;;;;0.57;0.30;;;;;;;;;;4938466;29;20095;-57
2022/04/16 17:30:52;;;;;;;1.23;0.50;;;;;;;;;;4929753;29;20031;-57
2022/04/16 17:33:20;;;;;;;1.02;0.50;;;;;;;;;;4933341;29;20090;-57
2022/04/16 17:35:46;;;;;;;6.55;0.95;;;;;;;;;;4925986;29;20028;-56
2022/04/16 17:38:12;;;;;;;4.57;0.70;;;;;;;;;;4931241;29;20040;-56
2022/04/16 17:40:38;;;;;;;1.40;0.73;;;;;;;;;;4932095;29;20046;-56
2022/04/16 17:43:04;;;;;;;2.17;0.50;;;;;;;;;;4930041;29;20119;-57
2022/04/16 17:45:30;;;;;;;0.70;0.40;;;;;;;;;;4935424;29;20031;-57
2022/04/16 17:47:57;;;;;;;1.27;0.55;;;;;;;;;;4936942;29;20019;-56
2022/04/16 17:50:23;;;;;;;1.02;0.50;;;;;;;;;;4928485;29;20499;-50
2022/04/16 17:52:49;;;;;;;0.50;0.50;;;;;;;;;;4929035;29;20032;-53
2022/04/16 17:55:15;;;;;;;0.50;0.40;;;;;;;;;;4928022;29;20033;-55
2022/04/16 17:57:43;;;;;;;1.23;0.80;;;;;;;;;;4932639;29;20040;-55
2022/04/16 18:00:10;;;;;;;1.75;0.50;;;;;;;;;;4930510;29;20036;-54
2022/04/16 18:02:37;;;;;;;3.92;0.90;;;;;;;;;;4929349;29;20032;-52
2022/04/16 18:05:05;;;;;;;1.90;1.70;;;;;;;;;;4930580;29;20215;-54
2022/04/16 18:07:31;;;;;;;1.50;0.70;;;;;;;;;;4923512;29;20024;-53
2022/04/16 18:09:57;;;;;;;0.65;0.40;;;;;;;;;;4929168;29;21718;-54
2022/04/16 18:12:23;;;;;;;0.30;0.30;;;;;;;;;;4935376;29;20078;-52
2022/04/16 18:14:49;;;;;;;1.58;0.70;;;;;;;;;;4932591;29;20031;-52
2022/04/16 18:17:17;;;;;;;4.00;1.90;;;;;;;;;;4931390;29;20042;-55
2022/04/16 18:19:43;;;;;;;1.50;0.60;;;;;;;;;;4927737;29;20098;-51
2022/04/16 18:22:09;;;;;;;5.22;0.68;;;;;;;;;;4931830;29;20439;-51
2022/04/16 18:24:37;;;;;;;0.70;0.47;;;;;;;;;;4924945;29;20031;-54
2022/04/16 18:27:04;;;;;;;2.15;0.80;;;;;;;;;;4933528;29;20055;-53
2022/04/16 18:29:30;;;;;;;1.33;0.70;;;;;;;;;;4929167;29;20527;-53
2022/04/16 18:31:56;;;;;;;1.42;0.65;;;;;;;;;;4932951;29;20171;-53
2022/04/16 18:34:22;;;;;;;1.23;0.70;;;;;;;;;;4933413;29;20539;-52
2022/04/16 18:36:49;;;;;;;0.95;0.60;;;;;;;;;;4930095;29;20531;-53
2022/04/16 18:39:15;;;;;;;1.50;0.57;;;;;;;;;;4934591;29;20027;-52
2022/04/16 18:41:43;;;;;;;1.05;0.70;;;;;;;;;;4926928;29;20026;-52
2022/04/16 18:44:09;;;;;;;2.42;0.88;;;;;;;;;;4927761;29;20083;-52
2022/04/16 18:46:35;;;;;;;2.80;0.88;;;;;;;;;;4911719;29;20036;-52
2022/04/16 18:49:01;;;;;;;7.38;0.93;;;;;;;;;;4914276;29;20035;-52
2022/04/16 18:51:27;;;;;;;2.78;1.45;;;;;;;;;;4905173;29;20039;-52
2022/04/16 18:53:53;;;;;;;12.77;4.50;;;;;;;;;;4909962;29;20071;-54
2022/04/16 18:56:20;;;;;;;3.67;0.93;;;;;;;;;;4911311;29;20497;-55
2022/04/16 18:58:46;;;;;;;1.42;0.82;;;;;;;;;;4908891;29;20048;-51
2022/04/16 19:06:55;;;;;;;1.52;1.10;;;;;;;;;;4910909;29;20551;-52
2022/04/16 19:09:25;;;;;;;2.58;0.75;;;;;;;;;;4912263;29;20040;-54
2022/04/16 19:11:52;;;;;;;4.78;1.15;;;;;;;;;;4915037;29;20076;-54
2022/04/16 19:14:18;;;;;;;1.83;1.05;;;;;;;;;;4912324;29;20028;-53
2022/04/16 19:16:47;;;;;;;1.88;1.00;;;;;;;;;;4911353;29;20045;-50
2022/04/16 19:19:13;;;;;;;1.45;0.90;;;;;;;;;;4913667;29;20084;-52
2022/04/16 19:21:39;;;;;;;3.35;1.52;;;;;;;;;;4913891;29;20043;-53
2022/04/16 19:24:05;;;;;;;7.57;3.00;;;;;;;;;;4911824;29;20032;-50
2022/04/16 19:26:31;;;;;;;2.28;1.13;;;;;;;;;;4900868;29;20028;-52
2022/04/16 19:28:57;;;;;;;2.53;1.35;;;;;;;;;;4908904;29;20028;-53
2022/04/16 19:31:23;;;;;;;2.17;0.93;;;;;;;;;;4910950;29;20036;-53
2022/04/16 19:33:49;;;;;;;1.63;1.00;;;;;;;;;;4911355;29;20028;-52
2022/04/16 19:36:15;;;;;;;3.90;1.10;;;;;;;;;;4909964;29;20123;-51
2022/04/16 19:38:41;;;;;;;1.85;0.98;;;;;;;;;;4907224;29;20841;-53
2022/04/16 19:41:08;;;;;;;1.90;0.80;;;;;;;;;;4906921;29;20468;-52
2022/04/16 19:43:34;;;;;;;2.38;1.10;;;;;;;;;;4907493;29;20024;-51
2022/04/16 19:46:01;;;;;;;1.65;0.82;;;;;;;;;;4922448;29;20495;-56
2022/04/16 19:48:27;;;;;;;9.00;2.95;;;;;;;;;;4930229;29;20038;-52
2022/04/16 19:50:53;;;;;;;2.13;1.02;;;;;;;;;;4929967;29;20023;-54
2022/04/16 19:53:19;;;;;;;2.70;1.63;;;;;;;;;;4931316;29;20479;-50
2022/04/16 19:55:46;;;;;;;4.80;1.05;;;;;;;;;;4927631;29;20031;-52
2022/04/16 19:58:12;;;;;;;1.75;0.93;;;;;;;;;;4932041;29;20110;-53
2022/04/16 20:00:39;;;;;;;2.75;1.33;;;;;;;;;;4930783;29;20039;-52
2022/04/16 20:03:05;;;;;;;3.28;1.77;;;;;;;;;;4933241;29;20028;-53
2022/04/16 20:05:38;;;;;;;2.65;1.50;;;;;;;;;;4925262;29;20378;-53
2022/04/16 20:10:54;;;;;;;1.65;1.08;;;;;;;;;;4931601;29;20510;-50
2022/04/16 20:13:22;;;;;;;2.00;1.17;;;;;;;;;;4930161;29;20042;-52
2022/04/16 20:15:48;;;;;;;2.45;1.10;;;;;;;;;;4925934;29;20075;-51
2022/04/16 20:18:15;;;;;;;3.13;1.25;;;;;;;;;;4927809;29;20035;-53
2022/04/16 20:20:41;;;;;;;2.38;1.30;;;;;;;;;;4933099;29;20028;-51
2022/04/16 20:23:07;;;;;;;2.30;1.27;;;;;;;;;;4929764;29;20106;-53
2022/04/16 20:25:36;;;;;;;2.22;1.23;;;;;;;;;;4930761;29;20036;-52
2022/04/16 20:28:03;;;;;;;6.85;3.92;;;;;;;;;;4930899;29;20107;-51
2022/04/16 22:51:32;;;;;;;2.15;1.90;;;;;;;;;;5041432;27;1143309;-55
2022/04/16 22:53:58;;;;;;;4.38;1.65;;;;;;;;;;5097466;28;20856;-50
2022/04/16 22:56:24;;;;;;;4.03;2.15;;;;;;;;;;5077424;28;20491;-54
2022/04/16 22:58:51;;;;;;;5.82;2.10;;;;;;;;;;5082103;28;20053;-53
2022/04/16 23:01:17;;;;;;;3.80;1.98;;;;;;;;;;5085851;28;20100;-53
2022/04/16 23:03:43;;;;;;;3.38;2.13;;;;;;;;;;5075762;28;20445;-54
2022/04/16 23:06:11;;;;;;;6.82;2.00;;;;;;;;;;5075309;28;20036;-51
2022/04/16 23:08:37;;;;;;;5.05;2.58;;;;;;;;;;5075343;28;20419;-52
2022/04/16 23:11:03;;;;;;;4.65;2.42;;;;;;;;;;5078042;28;20024;-51
2022/04/16 23:13:29;;;;;;;3.85;2.38;;;;;;;;;;5102399;28;20024;-53
2022/04/16 23:18:40;;;;;;;3.65;2.20;;;;;;;;;;5091096;28;20715;-53
2022/04/16 23:21:07;;;;;;;4.28;2.10;;;;;;;;;;5073723;28;20104;-54
2022/04/16 23:23:33;;;;;;;4.55;2.10;;;;;;;;;;5107189;28;20028;-53
2022/04/16 23:26:01;;;;;;;6.53;2.50;;;;;;;;;;5086309;28;20503;-53
2022/04/16 23:28:27;;;;;;;6.97;3.03;;;;;;;;;;5083612;28;20024;-55
2022/04/16 23:30:55;;;;;;;7.28;2.53;;;;;;;;;;5099739;28;20036;-53
2022/04/16 23:33:22;;;;;;;3.30;2.53;;;;;;;;;;5078385;28;20118;-52
2022/04/16 23:35:48;;;;;;;3.60;2.22;;;;;;;;;;5100614;28;20493;-50
2022/04/16 23:38:17;;;;;;;5.28;2.42;;;;;;;;;;5081850;28;20028;-52
2022/04/16 23:40:43;;;;;;;3.85;2.50;;;;;;;;;;5094819;28;20029;-51
2022/04/16 23:43:09;;;;;;;5.00;2.67;;;;;;;;;;5090156;28;20372;-51
2022/04/16 23:48:20;;;;;;;2.65;1.95;;;;;;;;;;5087422;28;20426;-52
2022/04/16 23:50:46;;;;;;;4.75;2.70;;;;;;;;;;5093369;28;20036;-52
2022/04/16 23:53:12;;;;;;;4.05;2.60;;;;;;;;;;5077362;28;20025;-54
2022/04/16 23:55:38;;;;;;;5.13;2.78;;;;;;;;;;5077362;28;20529;-56
2022/04/16 23:58:05;;;;;;;4.55;2.53;;;;;;;;;;5077811;28;20032;-54
